createdAt,value
2022-11-05T00:00:03.031Z,23.34
2022-11-05T00:05:29.651Z,23.33
2022-11-05T00:10:35.314Z,23.32
2022-11-05T00:15:55.759Z,23.30
2022-11-05T00:20:59.841Z,23.30
2022-11-05T00:26:03.976Z,23.30
2022-11-05T00:31:09.714Z,23.29
2022-11-05T00:36:13.636Z,23.29
2022-11-05T00:41:19.026Z,23.30
2022-11-05T00:46:21.647Z,23.27
2022-11-05T00:51:25.771Z,23.32
2022-11-05T00:56:28.311Z,23.32
2022-11-05T01:01:30.987Z,23.29
2022-11-05T01:06:36.023Z,23.30
2022-11-05T01:11:40.782Z,23.28
2022-11-05T01:16:45.258Z,23.27
2022-11-05T01:21:49.410Z,23.27
2022-11-05T01:26:51.989Z,23.28
2022-11-05T01:31:54.608Z,23.27
2022-11-05T01:36:58.666Z,23.26
2022-11-05T01:42:01.417Z,23.28
2022-11-05T01:47:04.101Z,23.25
2022-11-05T01:52:08.499Z,23.28
2022-11-05T01:57:12.306Z,23.26
2022-11-05T02:02:15.077Z,23.25
2022-11-05T02:07:19.508Z,23.26
2022-11-05T02:12:23.870Z,23.27
2022-11-05T02:17:38.983Z,23.25
2022-11-05T02:23:19.837Z,23.25
2022-11-05T02:28:40.863Z,23.25
2022-11-05T02:33:56.962Z,23.22
2022-11-05T02:39:13.782Z,23.25
2022-11-05T02:44:28.317Z,23.23
2022-11-05T02:49:41.965Z,23.22
2022-11-05T02:54:53.218Z,23.25
2022-11-05T03:00:03.407Z,23.25
2022-11-05T03:05:07.910Z,23.25
2022-11-05T03:10:42.452Z,23.24
2022-11-05T03:15:58.139Z,23.25
2022-11-05T03:21:07.972Z,23.23
2022-11-05T03:26:19.732Z,23.25
2022-11-05T03:31:26.530Z,23.23
2022-11-05T03:36:35.018Z,23.26
2022-11-05T03:41:43.150Z,23.23
2022-11-05T03:46:49.603Z,23.25
2022-11-05T03:51:59.897Z,23.24
2022-11-05T03:57:08.406Z,23.22
2022-11-05T04:02:11.777Z,23.24
2022-11-05T04:07:33.703Z,23.22
2022-11-05T04:12:54.306Z,23.22
2022-11-05T04:18:02.654Z,23.22
2022-11-05T04:23:25.668Z,23.22
2022-11-05T04:28:48.396Z,23.21
2022-11-05T04:33:51.035Z,23.20
2022-11-05T04:38:55.177Z,23.22
2022-11-05T04:43:57.814Z,23.21
2022-11-05T04:49:00.514Z,23.21
2022-11-05T04:54:04.921Z,23.22
2022-11-05T04:59:07.551Z,23.19
2022-11-05T05:04:10.220Z,23.21
2022-11-05T05:09:14.378Z,23.18
2022-11-05T05:14:17.014Z,23.19
2022-11-05T05:19:19.863Z,23.18
2022-11-05T05:24:24.959Z,23.20
2022-11-05T05:29:27.648Z,23.19
2022-11-05T05:34:30.339Z,23.19
2022-11-05T05:39:34.718Z,23.18
2022-11-05T05:44:37.497Z,23.19
2022-11-05T05:49:40.280Z,23.18
2022-11-05T05:54:44.236Z,23.20
2022-11-05T05:59:46.987Z,23.19
2022-11-05T06:04:49.688Z,23.16
2022-11-05T06:09:53.775Z,23.18
2022-11-05T06:14:56.401Z,23.12
2022-11-05T06:19:59.177Z,23.15
2022-11-05T06:25:03.345Z,23.14
2022-11-05T06:30:07.714Z,23.14
2022-11-05T06:35:10.819Z,23.14
2022-11-05T06:40:14.842Z,23.13
2022-11-05T06:45:17.480Z,23.10
2022-11-05T06:50:20.459Z,23.12
2022-11-05T06:55:25.007Z,23.09
2022-11-05T07:00:28.067Z,23.07
2022-11-05T07:05:30.964Z,23.10
2022-11-05T07:10:35.042Z,23.09
2022-11-05T07:15:38.960Z,23.09
2022-11-05T07:20:41.585Z,23.07
2022-11-05T07:25:45.915Z,23.05
2022-11-05T07:30:49.213Z,23.08
2022-11-05T07:35:51.815Z,23.11
2022-11-05T07:40:55.836Z,23.10
2022-11-05T07:45:58.466Z,23.09
2022-11-05T07:51:01.111Z,23.09
2022-11-05T07:56:05.737Z,23.11
2022-11-05T08:01:08.673Z,23.13
2022-11-05T08:06:11.506Z,23.15
2022-11-05T08:11:15.623Z,23.11
2022-11-05T08:16:18.284Z,23.07
2022-11-05T08:21:20.909Z,23.04
2022-11-05T08:26:24.893Z,23.03
2022-11-05T08:31:27.708Z,23.03
2022-11-05T08:36:30.655Z,23.08
2022-11-05T08:41:34.706Z,23.07
2022-11-05T08:46:41.598Z,21.71
2022-11-05T08:51:47.871Z,20.94
2022-11-05T08:56:52.068Z,21.31
2022-11-05T09:01:54.780Z,21.87
2022-11-05T09:06:57.646Z,22.08
2022-11-05T09:12:16.911Z,22.23
2022-11-05T09:17:21.801Z,22.27
2022-11-05T09:22:24.485Z,22.31
2022-11-05T09:27:28.632Z,22.32
2022-11-05T09:32:32.172Z,22.37
2022-11-05T09:37:35.133Z,22.43
2022-11-05T09:42:43.513Z,22.45
2022-11-05T09:47:51.997Z,22.18
2022-11-05T09:52:54.933Z,22.31
2022-11-05T09:58:01.290Z,22.34
2022-11-05T10:03:10.852Z,22.39
2022-11-05T10:08:16.892Z,22.43
2022-11-05T10:13:26.922Z,22.47
2022-11-05T10:18:34.568Z,22.52
2022-11-05T10:23:37.909Z,22.52
2022-11-05T10:28:41.883Z,22.52
2022-11-05T10:33:47.107Z,22.54
2022-11-05T10:38:50.095Z,22.54
2022-11-05T10:44:04.536Z,22.52
2022-11-05T10:49:27.979Z,22.54
2022-11-05T10:54:34.543Z,22.58
2022-11-05T10:59:38.502Z,22.56
2022-11-05T11:04:41.547Z,22.59
2022-11-05T11:09:49.447Z,22.64
2022-11-05T11:15:02.871Z,22.62
2022-11-05T11:20:27.931Z,22.61
2022-11-05T11:25:32.493Z,22.58
2022-11-05T11:30:36.706Z,22.63
2022-11-05T11:35:40.061Z,22.57
2022-11-05T11:40:43.266Z,22.71
2022-11-05T11:45:50.616Z,22.65
2022-11-05T11:50:53.336Z,22.62
2022-11-05T11:56:05.137Z,22.60
2022-11-05T12:01:46.615Z,22.65
2022-11-05T12:06:59.406Z,22.66
2022-11-05T12:12:10.167Z,22.79
2022-11-05T12:17:32.780Z,22.89
2022-11-05T12:23:03.994Z,22.98
2022-11-05T12:28:29.609Z,23.02
2022-11-05T12:33:48.262Z,23.07
2022-11-05T12:39:14.524Z,23.07
2022-11-05T12:44:38.706Z,23.13
2022-11-05T12:50:02.798Z,23.16
2022-11-05T12:55:12.157Z,23.21
2022-11-05T13:00:19.514Z,23.20
2022-11-05T13:05:34.348Z,23.17
2022-11-05T13:10:41.936Z,23.15
2022-11-05T13:15:51.302Z,23.33
2022-11-05T13:20:58.523Z,23.41
2022-11-05T13:26:13.350Z,23.40
2022-11-05T13:31:25.938Z,23.41
2022-11-05T13:36:52.240Z,23.41
2022-11-05T13:42:16.867Z,23.41
2022-11-05T13:47:40.722Z,23.37
2022-11-05T13:53:02.769Z,23.29
2022-11-05T13:58:35.734Z,23.22
2022-11-05T14:03:39.833Z,23.19
2022-11-05T14:08:47.184Z,23.15
2022-11-05T14:13:55.405Z,23.40
2022-11-05T14:19:34.577Z,23.34
2022-11-05T14:24:44.199Z,23.39
2022-11-05T14:29:48.412Z,23.48
2022-11-05T14:34:56.479Z,23.50
2022-11-05T14:40:29.887Z,23.52
2022-11-05T14:45:36.223Z,23.50
2022-11-05T14:50:41.829Z,23.55
2022-11-05T14:55:46.130Z,23.59
2022-11-05T15:00:50.221Z,23.57
2022-11-05T15:05:53.603Z,23.53
2022-11-05T15:11:08.229Z,23.46
2022-11-05T15:16:10.954Z,23.33
2022-11-05T15:21:17.374Z,23.31
2022-11-05T15:26:29.401Z,23.29
2022-11-05T15:31:35.904Z,23.28
2022-11-05T15:36:38.584Z,23.18
2022-11-05T15:41:42.563Z,23.12
2022-11-05T15:46:47.969Z,23.10
2022-11-05T15:51:50.632Z,23.07
2022-11-05T15:56:57.925Z,23.08
2022-11-05T16:02:06.974Z,23.17
2022-11-05T16:07:11.961Z,23.16
2022-11-05T16:12:27.028Z,23.17
2022-11-05T16:17:34.442Z,23.15
2022-11-05T16:22:46.976Z,23.13
2022-11-05T16:27:51.404Z,23.13
2022-11-05T16:32:54.663Z,23.10
2022-11-05T16:37:57.326Z,23.15
2022-11-05T16:43:17.048Z,23.12
2022-11-05T16:48:19.674Z,23.11
2022-11-05T16:53:22.788Z,23.11
2022-11-05T16:58:27.608Z,23.09
2022-11-05T17:03:30.357Z,23.08
2022-11-05T17:08:32.947Z,23.10
2022-11-05T17:13:37.082Z,23.14
2022-11-05T17:18:40.354Z,23.17
2022-11-05T17:23:43.123Z,23.18
2022-11-05T17:28:47.143Z,23.18
2022-11-05T17:33:49.750Z,23.17
2022-11-05T17:38:53.133Z,23.13
2022-11-05T17:43:58.139Z,23.14
2022-11-05T17:49:01.108Z,23.12
2022-11-05T17:54:03.983Z,23.12
2022-11-05T17:59:08.020Z,23.10
2022-11-05T18:04:10.994Z,23.11
2022-11-05T18:09:16.517Z,23.06
2022-11-05T18:14:23.972Z,23.04
2022-11-05T18:19:27.994Z,23.07
2022-11-05T18:24:31.803Z,23.08
2022-11-05T18:29:35.989Z,23.05
2022-11-05T18:34:38.950Z,23.00
2022-11-05T18:39:41.564Z,23.02
2022-11-05T18:44:46.151Z,23.01
2022-11-05T18:49:48.951Z,22.97
2022-11-05T18:54:51.558Z,23.03
2022-11-05T18:59:55.646Z,23.03
2022-11-05T19:10:20.934Z,23.11
2022-11-05T19:15:24.877Z,23.14
2022-11-05T19:20:28.114Z,23.18
2022-11-05T19:25:31.035Z,23.21
2022-11-05T19:30:35.274Z,23.23
2022-11-05T19:35:41.414Z,23.27
2022-11-05T19:40:44.364Z,23.29
2022-11-05T19:45:48.407Z,23.31
2022-11-05T19:50:51.272Z,23.32
2022-11-05T19:55:53.955Z,23.32
2022-11-05T20:00:57.961Z,23.29
2022-11-05T20:06:05.386Z,23.34
2022-11-05T20:11:08.559Z,23.36
2022-11-05T20:16:21.867Z,23.36
2022-11-05T20:21:24.775Z,23.36
2022-11-05T20:26:28.036Z,23.37
2022-11-05T20:31:32.188Z,23.41
2022-11-05T20:36:34.824Z,23.40
2022-11-05T20:41:37.662Z,23.40
2022-11-05T20:46:41.636Z,23.41
2022-11-05T20:51:44.366Z,23.41
2022-11-05T20:56:47.113Z,23.41
2022-11-05T21:01:53.984Z,23.41
2022-11-05T21:06:56.757Z,23.41
2022-11-05T21:12:11.500Z,23.40
2022-11-05T21:17:15.584Z,23.40
2022-11-05T21:22:18.351Z,23.40
2022-11-05T21:27:21.058Z,23.41
2022-11-05T21:32:25.187Z,23.42
2022-11-05T21:37:28.278Z,23.41
2022-11-05T21:42:31.155Z,23.40
2022-11-05T21:47:35.543Z,23.39
2022-11-05T21:52:55.723Z,23.42
2022-11-05T21:58:18.174Z,23.43
2022-11-05T22:03:22.206Z,23.45
2022-11-05T22:08:24.995Z,23.45
2022-11-05T22:13:27.671Z,23.44
2022-11-05T22:18:31.599Z,23.45
2022-11-05T22:23:34.305Z,23.44
2022-11-05T22:28:36.931Z,23.43
2022-11-05T22:33:40.904Z,23.45
2022-11-05T22:38:43.636Z,23.45
2022-11-05T22:43:47.070Z,23.45
2022-11-05T22:48:51.492Z,23.44
2022-11-05T22:53:54.923Z,23.40
2022-11-05T22:58:57.877Z,23.39
2022-11-05T23:04:02.177Z,23.37
2022-11-05T23:09:26.638Z,23.38
2022-11-05T23:14:30.713Z,23.40
2022-11-05T23:19:52.335Z,23.39
2022-11-05T23:24:54.912Z,23.39
2022-11-05T23:29:58.916Z,23.37
2022-11-05T23:35:02.940Z,23.43
2022-11-05T23:40:07.736Z,23.41
2022-11-05T23:45:28.775Z,23.41
2022-11-05T23:50:37.150Z,23.44
2022-11-05T23:55:42.287Z,23.43
